Time;durP1;ratioP1;P1;durP2;ratioP2;P2;SDS_P1;SDS_P2;PMS_P1;PMS_P2;Temp;Humidity;BMP_temperature;BMP_pressure;BME280_temperature;BME280_humidity;BME280_pressure;Samples;Min_cycle;Max_cycle;Signal;HPM_P1;HPM_P2
2022/04/30 00:00:20;;;;;;;11.50;5.85;;;8.00;99.90;;;;;;4959229;29;20030;-77
2022/04/30 00:02:46;;;;;;;8.18;5.53;;;7.50;99.90;;;;;;4962146;29;20027;-76
2022/04/30 00:05:12;;;;;;;10.20;5.95;;;7.40;99.90;;;;;;4945296;29;20031;-77
2022/04/30 00:07:38;;;;;;;6.47;5.63;;;7.30;99.90;;;;;;4963339;29;20023;-77
2022/04/30 00:10:06;;;;;;;7.22;5.63;;;7.30;99.90;;;;;;4963179;29;20035;-77
2022/04/30 00:12:33;;;;;;;6.20;4.82;;;7.30;99.90;;;;;;4963121;29;20107;-77
2022/04/30 00:14:59;;;;;;;8.75;5.50;;;7.30;99.90;;;;;;4963199;29;20463;-77
2022/04/30 00:17:25;;;;;;;8.00;5.80;;;7.30;99.90;;;;;;4962780;29;20046;-77
2022/04/30 00:19:50;;;;;;;8.25;5.00;;;7.20;99.90;;;;;;4961982;29;20046;-77
2022/04/30 00:22:16;;;;;;;9.38;5.45;;;7.10;99.90;;;;;;4945093;29;20055;-77
2022/04/30 00:24:42;;;;;;;9.73;5.53;;;7.00;99.90;;;;;;4945218;29;20557;-78
2022/04/30 00:27:10;;;;;;;6.93;5.38;;;7.00;99.90;;;;;;4945456;29;20035;-77
2022/04/30 00:29:36;;;;;;;8.73;5.97;;;6.90;99.90;;;;;;4959165;29;20042;-77
2022/04/30 00:32:03;;;;;;;8.68;5.72;;;6.90;99.90;;;;;;4954340;29;20031;-77
2022/04/30 00:34:30;;;;;;;9.13;5.78;;;6.80;99.90;;;;;;4937286;29;20027;-77
2022/04/30 00:36:56;;;;;;;7.82;6.00;;;6.90;99.90;;;;;;4954737;29;20027;-76
2022/04/30 00:39:22;;;;;;;8.43;6.55;;;6.90;99.90;;;;;;4937758;29;20060;-77
2022/04/30 00:41:48;;;;;;;9.00;5.93;;;7.00;99.90;;;;;;4937974;29;20442;-77
2022/04/30 00:44:18;;;;;;;7.85;6.10;;;6.90;99.90;;;;;;4937781;29;20046;-77
2022/04/30 00:46:46;;;;;;;5.88;4.85;;;6.90;99.90;;;;;;4955236;29;20038;-77
2022/04/30 00:49:11;;;;;;;8.60;5.20;;;6.80;99.90;;;;;;4940152;29;20035;-76
2022/04/30 00:51:40;;;;;;;11.75;6.10;;;6.80;99.90;;;;;;4958739;29;20058;-77
2022/04/30 00:54:07;;;;;;;9.45;5.68;;;6.70;99.90;;;;;;4958915;29;20027;-77
2022/04/30 00:56:43;;;;;;;8.40;6.47;;;6.70;99.90;;;;;;4958636;29;20035;-77
2022/04/30 00:59:17;;;;;;;6.28;5.68;;;7.30;99.90;;;;;;4959313;29;20034;-77
2022/04/30 01:01:45;;;;;;;8.35;6.47;;;6.60;99.90;;;;;;4941992;29;20442;-77
2022/04/30 01:04:11;;;;;;;7.47;6.68;;;6.60;99.90;;;;;;4945511;29;20090;-77
2022/04/30 01:06:44;;;;;;;8.73;5.78;;;6.60;99.90;;;;;;4946134;29;20451;-77
2022/04/30 01:09:11;;;;;;;11.48;6.28;;;6.60;99.90;;;;;;4964565;29;20043;-77
2022/04/30 01:11:37;;;;;;;12.13;6.25;;;6.60;99.90;;;;;;4947423;29;20029;-77
2022/04/30 01:14:04;;;;;;;12.90;6.22;;;6.60;99.90;;;;;;4947378;29;20035;-77
2022/04/30 01:16:32;;;;;;;7.30;6.00;;;6.80;99.90;;;;;;4947850;29;20035;-77
2022/04/30 01:19:00;;;;;;;6.72;5.55;;;6.60;99.90;;;;;;4947277;29;20031;-77
2022/04/30 01:21:31;;;;;;;11.00;6.05;;;6.40;99.90;;;;;;4946582;29;20027;-76
2022/04/30 01:24:00;;;;;;;10.60;6.82;;;6.50;99.90;;;;;;4964331;29;20023;-76
2022/04/30 01:26:27;;;;;;;8.30;6.60;;;;;;;;;;4964480;29;20024;-77
2022/04/30 01:28:56;;;;;;;9.30;6.80;;;6.40;99.90;;;;;;4947557;29;20039;-77
2022/04/30 01:39:44;;;;;;;9.18;6.30;;;6.30;99.90;;;;;;4964569;29;20038;-77
2022/04/30 01:42:11;;;;;;;10.45;6.32;;;6.30;99.90;;;;;;4962508;29;20027;-77
2022/04/30 01:44:44;;;;;;;8.73;6.72;;;6.20;99.90;;;;;;4962901;29;20027;-77
2022/04/30 01:47:11;;;;;;;8.57;5.60;;;6.20;99.90;;;;;;4945351;29;20045;-76
2022/04/30 01:49:37;;;;;;;8.60;6.00;;;6.10;99.90;;;;;;4961211;29;20063;-77
2022/04/30 01:52:10;;;;;;;6.50;5.85;;;6.10;99.90;;;;;;4960449;29;20028;-77
2022/04/30 01:54:36;;;;;;;9.13;6.82;;;6.10;99.90;;;;;;4959954;29;20035;-77
2022/04/30 01:57:06;;;;;;;11.20;7.78;;;6.10;99.90;;;;;;4959342;29;20051;-76
2022/04/30 01:59:35;;;;;;;9.23;6.60;;;6.10;99.90;;;;;;4942375;28;20027;-77
2022/04/30 02:02:04;;;;;;;8.95;6.78;;;6.00;99.90;;;;;;4961243;29;20097;-77
2022/04/30 02:04:32;;;;;;;9.05;6.97;;;6.00;99.90;;;;;;4926696;29;20467;-77
2022/04/30 02:07:04;;;;;;;10.25;6.60;;;6.00;99.90;;;;;;4943001;29;20031;-77
2022/04/30 02:09:34;;;;;;;8.98;6.65;;;6.00;99.90;;;;;;4959660;29;20467;-77
2022/04/30 02:12:01;;;;;;;10.98;7.05;;;6.00;99.90;;;;;;4942205;29;20032;-77
2022/04/30 02:14:33;;;;;;;9.65;6.22;;;6.00;99.90;;;;;;4959422;29;20027;-77
2022/04/30 02:17:01;;;;;;;7.60;6.68;;;6.00;99.90;;;;;;4941053;29;20030;-77
2022/04/30 02:20:18;;;;;;;10.80;6.55;;;5.90;99.90;;;;;;4940987;29;20470;-77
2022/04/30 02:22:18;;;;;;;11.13;7.15;;;5.90;99.90;;;;;;4956877;29;20042;-77
2022/04/30 02:24:45;;;;;;;9.38;6.97;;;5.90;99.90;;;;;;4958151;29;20092;-77
2022/04/30 02:27:12;;;;;;;12.10;7.03;;;5.80;99.90;;;;;;4958933;29;20107;-77
2022/04/30 02:29:38;;;;;;;8.10;6.50;;;5.80;99.90;;;;;;4941434;29;20042;-76
2022/04/30 02:32:06;;;;;;;9.32;6.85;;;5.70;99.90;;;;;;4958346;29;20027;-77
2022/04/30 02:34:35;;;;;;;9.25;6.80;;;5.70;99.90;;;;;;4941188;29;20827;-76
2022/04/30 02:37:04;;;;;;;9.57;6.93;;;5.70;99.90;;;;;;4940650;29;20030;-77
2022/04/30 02:39:33;;;;;;;13.73;8.45;;;5.60;99.90;;;;;;4940861;29;20036;-77
2022/04/30 02:41:58;;;;;;;13.73;7.35;;;5.60;99.90;;;;;;4956880;29;20035;-77
2022/04/30 02:44:26;;;;;;;12.77;7.38;;;5.60;99.90;;;;;;4957672;29;20031;-76
2022/04/30 02:46:54;;;;;;;10.02;6.90;;;5.60;99.90;;;;;;4957784;29;20498;-77
2022/04/30 02:49:21;;;;;;;16.13;8.10;;;5.50;99.90;;;;;;4957740;29;20395;-77
2022/04/30 02:51:48;;;;;;;13.13;6.75;;;5.50;99.90;;;;;;4939451;29;20494;-77
2022/04/30 02:54:15;;;;;;;11.32;7.72;;;5.50;99.90;;;;;;4957519;29;20031;-77
2022/04/30 02:56:42;;;;;;;9.65;7.35;;;5.50;99.90;;;;;;4923954;29;20035;-76
2022/04/30 03:01:53;;;;;;;14.05;9.00;;;5.50;99.90;;;;;;4957008;29;20033;-77
2022/04/30 03:04:19;;;;;;;14.27;12.77;;;5.50;99.90;;;;;;4957233;29;20041;-77
2022/04/30 03:06:46;;;;;;;12.27;10.93;;;5.50;99.90;;;;;;4957016;29;20370;-76
2022/04/30 03:09:13;;;;;;;12.57;8.93;;;5.50;99.90;;;;;;4956576;29;20390;-77
2022/04/30 03:11:40;;;;;;;11.52;8.60;;;5.40;99.90;;;;;;4939563;29;20028;-78
2022/04/30 03:14:07;;;;;;;14.52;7.93;;;5.40;99.90;;;;;;4954725;29;20031;-77
2022/04/30 03:22:03;;;;;;;12.30;7.32;;;5.40;99.90;;;;;;4959010;29;20042;-77
2022/04/30 03:24:31;;;;;;;11.95;7.22;;;5.40;99.90;;;;;;4960155;29;20031;-77
2022/04/30 03:26:57;;;;;;;12.65;7.63;;;5.40;99.90;;;;;;4961153;29;20038;-77
2022/04/30 03:29:24;;;;;;;10.60;8.05;;;5.30;99.90;;;;;;4942403;29;20035;-77
2022/04/30 03:31:50;;;;;;;9.40;7.28;;;5.20;99.90;;;;;;4942721;29;20019;-77
2022/04/30 03:34:16;;;;;;;9.63;7.55;;;5.20;99.90;;;;;;4959851;29;20399;-78
2022/04/30 03:36:43;;;;;;;13.23;8.63;;;5.20;99.90;;;;;;4960021;29;20019;-77
2022/04/30 03:39:09;;;;;;;10.20;7.90;;;5.20;99.90;;;;;;4942448;29;20039;-77
2022/04/30 03:41:35;;;;;;;13.18;7.60;;;5.20;99.90;;;;;;4960172;29;20028;-77
2022/04/30 03:44:02;;;;;;;14.18;7.95;;;5.20;99.90;;;;;;4960490;29;20094;-75
2022/04/30 03:46:29;;;;;;;9.23;7.18;;;5.20;99.90;;;;;;4960327;29;20107;-77
2022/04/30 03:48:56;;;;;;;11.00;7.40;;;5.20;99.90;;;;;;4960130;29;20102;-77
2022/04/30 03:51:27;;;;;;;11.73;8.30;;;5.30;99.90;;;;;;4960683;29;20024;-77
2022/04/30 03:53:56;;;;;;;9.35;7.15;;;5.30;99.90;;;;;;4960864;29;20115;-78
2022/04/30 03:56:22;;;;;;;9.60;8.48;;;5.40;99.90;;;;;;4959824;29;21131;-77
2022/04/30 03:58:48;;;;;;;11.23;9.25;;;5.40;99.90;;;;;;4943296;29;20027;-77
2022/04/30 04:01:18;;;;;;;12.02;8.90;;;5.30;99.90;;;;;;4960481;29;20055;-77
2022/04/30 04:03:45;;;;;;;13.75;8.60;;;5.30;99.90;;;;;;4958266;29;20439;-77
2022/04/30 04:06:13;;;;;;;11.07;8.88;;;5.30;99.90;;;;;;4937908;29;20118;-77
2022/04/30 04:08:39;;;;;;;12.95;8.63;;;5.30;99.90;;;;;;4937725;29;20139;-77
2022/04/30 04:11:10;;;;;;;10.48;8.05;;;5.30;99.90;;;;;;4955454;29;20039;-77
2022/04/30 04:19:06;;;;;;;11.85;7.63;;;5.40;99.90;;;;;;4955762;29;20074;-77
2022/04/30 04:21:32;;;;;;;11.95;7.00;;;5.40;99.90;;;;;;4938105;29;20426;-77
2022/04/30 04:26:42;;;;;;;9.13;7.70;;;5.40;99.90;;;;;;4959657;29;20486;-77
2022/04/30 04:29:10;;;;;;;15.10;7.28;;;5.50;99.90;;;;;;4959440;29;20050;-77
2022/04/30 04:31:36;;;;;;;9.65;6.65;;;5.40;99.90;;;;;;4942650;29;20019;-77
2022/04/30 04:34:03;;;;;;;8.38;6.53;;;5.30;99.90;;;;;;4959738;29;20502;-77
2022/04/30 04:36:28;;;;;;;12.77;7.45;;;5.40;99.90;;;;;;4942526;29;20023;-77
2022/04/30 04:38:54;;;;;;;17.70;7.45;;;5.50;99.90;;;;;;4943458;29;20031;-77
2022/04/30 04:41:20;;;;;;;12.90;8.00;;;5.50;99.90;;;;;;4941872;29;20027;-77
2022/04/30 04:43:46;;;;;;;10.48;7.82;;;5.60;99.90;;;;;;4958512;29;20035;-77
2022/04/30 04:46:13;;;;;;;9.77;7.30;;;5.60;99.90;;;;;;4941296;29;20020;-77
2022/04/30 04:48:39;;;;;;;10.70;8.02;;;5.60;99.90;;;;;;4958810;29;20040;-77
2022/04/30 04:51:05;;;;;;;11.00;8.32;;;5.70;99.90;;;;;;4941715;29;20033;-77
2022/04/30 04:53:31;;;;;;;10.98;8.60;;;5.60;99.90;;;;;;4942809;29;20027;-77
2022/04/30 04:55:57;;;;;;;10.00;8.00;;;5.70;99.90;;;;;;4960818;29;20029;-77
2022/04/30 04:58:22;;;;;;;11.90;8.50;;;5.80;99.90;;;;;;4961514;29;20059;-77
2022/04/30 05:00:48;;;;;;;15.70;9.60;;;5.90;99.90;;;;;;4943809;29;20368;-77
2022/04/30 05:03:15;;;;;;;13.90;8.15;;;6.00;99.90;;;;;;4961255;29;20074;-78
2022/04/30 05:05:40;;;;;;;11.05;7.88;;;6.00;99.90;;;;;;4961507;29;20019;-77
2022/04/30 05:08:06;;;;;;;11.88;8.50;;;6.20;99.90;;;;;;4963326;29;20050;-82
2022/04/30 05:10:35;;;;;;;11.23;7.82;;;6.80;99.90;;;;;;4946951;29;20108;-76
2022/04/30 05:13:00;;;;;;;13.38;7.22;;;6.80;99.90;;;;;;4959138;29;20698;-77
2022/04/30 05:15:26;;;;;;;13.25;7.65;;;6.90;99.90;;;;;;4960912;29;20463;-77
2022/04/30 05:17:52;;;;;;;9.80;7.55;;;7.00;99.90;;;;;;4962887;29;20051;-77
2022/04/30 05:20:21;;;;;;;9.57;7.53;;;6.90;99.90;;;;;;4942510;29;20110;-77
2022/04/30 05:22:47;;;;;;;12.20;8.68;;;7.20;99.90;;;;;;4959363;29;20023;-77
2022/04/30 05:25:13;;;;;;;14.05;9.35;;;7.20;99.90;;;;;;4942644;29;20558;-77
2022/04/30 05:27:39;;;;;;;19.75;8.27;;;7.30;99.90;;;;;;4959015;29;20110;-77
2022/04/30 05:30:08;;;;;;;11.82;8.48;;;7.40;99.90;;;;;;4960358;29;20038;-77
2022/04/30 05:32:34;;;;;;;14.50;8.20;;;7.60;99.90;;;;;;4945613;29;20035;-77
2022/04/30 05:35:00;;;;;;;11.85;7.68;;;7.70;99.90;;;;;;4959020;28;20035;-77
2022/04/30 05:37:26;;;;;;;12.65;7.72;;;7.80;99.90;;;;;;4959926;29;20019;-77
2022/04/30 05:39:51;;;;;;;10.77;8.13;;;7.90;99.90;;;;;;4942287;29;20054;-77
2022/04/30 05:42:17;;;;;;;13.75;8.25;;;8.00;99.90;;;;;;4959632;29;20053;-77
2022/04/30 05:44:42;;;;;;;16.80;10.02;;;8.20;99.90;;;;;;4959354;29;20035;-77
2022/04/30 05:47:08;;;;;;;10.02;7.68;;;8.30;99.90;;;;;;4942162;29;20030;-76
2022/04/30 05:49:34;;;;;;;8.63;6.78;;;8.40;99.90;;;;;;5001918;23;20042;-77
2022/04/30 05:52:00;;;;;;;8.57;7.10;;;8.60;99.90;;;;;;4977692;28;20050;-77
2022/04/30 05:54:26;;;;;;;12.93;7.45;;;8.80;99.90;;;;;;4977771;28;20029;-77
2022/04/30 05:56:51;;;;;;;11.43;7.20;;;8.90;99.90;;;;;;4985933;23;20056;-77
2022/04/30 05:59:18;;;;;;;8.30;6.55;;;9.00;99.90;;;;;;4938207;29;20766;-77
2022/04/30 06:01:43;;;;;;;11.35;6.78;;;9.10;99.90;;;;;;4937938;29;20060;-77
2022/04/30 06:04:10;;;;;;;8.98;6.93;;;9.40;99.90;;;;;;4920662;29;20027;-77
2022/04/30 06:06:36;;;;;;;10.30;6.72;;;9.60;99.90;;;;;;4920212;29;20062;-76
2022/04/30 06:09:02;;;;;;;9.15;6.63;;;9.80;99.90;;;;;;4937474;29;20080;-77
2022/04/30 06:11:27;;;;;;;8.30;6.32;;;9.90;99.90;;;;;;4937826;29;20028;-77
2022/04/30 06:13:53;;;;;;;11.77;6.18;;;10.00;99.80;;;;;;4937345;29;20087;-76
2022/04/30 06:16:18;;;;;;;6.50;5.75;;;10.30;99.70;;;;;;4936395;29;20110;-77
2022/04/30 06:18:44;;;;;;;8.65;5.78;;;10.50;97.30;;;;;;4936406;29;20039;-78
2022/04/30 06:21:10;;;;;;;10.57;5.72;;;10.70;95.20;;;;;;4919434;29;20019;-78
2022/04/30 06:23:35;;;;;;;7.07;5.72;;;10.80;94.00;;;;;;4936340;29;20063;-78
2022/04/30 06:26:01;;;;;;;8.93;5.47;;;10.90;92.90;;;;;;4919198;29;20028;-78
2022/04/30 06:28:26;;;;;;;8.38;6.20;;;11.10;93.30;;;;;;4919035;29;20040;-77
2022/04/30 06:30:52;;;;;;;7.38;4.80;;;11.10;93.20;;;;;;4935979;29;20487;-78
2022/04/30 06:33:18;;;;;;;10.60;5.70;;;11.20;92.90;;;;;;4936089;29;20016;-77
2022/04/30 06:35:44;;;;;;;9.68;6.05;;;11.30;93.00;;;;;;4935713;29;20024;-77
2022/04/30 06:38:11;;;;;;;8.73;4.75;;;11.40;91.80;;;;;;4919105;29;20058;-77
2022/04/30 06:40:36;;;;;;;8.85;5.38;;;11.50;95.50;;;;;;4918718;29;20019;-77
2022/04/30 06:43:02;;;;;;;7.22;5.25;;;12.00;97.30;;;;;;4935883;29;20111;-82
2022/04/30 06:45:29;;;;;;;9.52;5.40;;;11.90;98.20;;;;;;4935548;29;20024;-77
2022/04/30 06:47:54;;;;;;;10.05;5.43;;;12.10;97.40;;;;;;4935108;29;20059;-76
2022/04/30 06:50:20;;;;;;;8.57;5.53;;;12.20;95.40;;;;;;4935566;29;20480;-76
2022/04/30 06:58:14;;;;;;;6.88;4.90;;;12.60;93.60;;;;;;4935292;29;20559;-76
2022/04/30 07:03:27;;;;;;;6.53;5.25;;;12.90;90.10;;;;;;4935384;29;20135;-76
2022/04/30 07:06:04;;;;;;;8.45;5.43;;;13.20;93.90;;;;;;4917943;29;20027;-78
2022/04/30 07:08:34;;;;;;;7.18;4.88;;;13.20;87.10;;;;;;4935097;29;20043;-79
2022/04/30 07:11:03;;;;;;;8.85;5.25;;;13.40;85.30;;;;;;4935228;29;20027;-78
2022/04/30 07:13:32;;;;;;;8.38;5.32;;;13.60;84.20;;;;;;4918128;29;20122;-79
2022/04/30 07:16:03;;;;;;;7.90;5.28;;;13.70;82.90;;;;;;4935036;29;20468;-77
2022/04/30 07:18:29;;;;;;;5.80;5.05;;;14.00;83.80;;;;;;4934955;29;20482;-78
2022/04/30 07:20:55;;;;;;;5.50;4.60;;;14.20;82.70;;;;;;4918327;29;20027;-78
2022/04/30 07:23:21;;;;;;;6.32;5.32;;;14.30;80.20;;;;;;4934869;29;20482;-77
2022/04/30 07:25:48;;;;;;;9.77;4.95;;;14.40;80.30;;;;;;4935054;29;20091;-77
2022/04/30 07:28:14;;;;;;;7.32;4.70;;;14.60;78.30;;;;;;4917855;29;20032;-78
2022/04/30 07:30:40;;;;;;;10.30;4.75;;;14.70;74.90;;;;;;4934899;29;20034;-77
2022/04/30 07:33:06;;;;;;;8.07;4.30;;;14.90;74.00;;;;;;4935095;29;20027;-78
2022/04/30 07:35:31;;;;;;;4.35;3.67;;;15.20;71.80;;;;;;4935114;29;20028;-79
2022/04/30 07:37:57;;;;;;;9.27;4.93;;;15.50;69.10;;;;;;4935000;29;20042;-77
2022/04/30 07:40:24;;;;;;;9.57;5.15;;;15.70;68.10;;;;;;4917779;29;20400;-78
2022/04/30 07:42:50;;;;;;;8.65;5.15;;;16.00;65.50;;;;;;4917869;29;20039;-77
2022/04/30 07:45:16;;;;;;;6.93;4.88;;;16.20;61.00;;;;;;4935078;29;20027;-77
2022/04/30 07:47:41;;;;;;;6.13;4.28;;;16.40;64.10;;;;;;4934828;29;20028;-77
2022/04/30 07:50:07;;;;;;;7.20;4.13;;;16.60;63.90;;;;;;4935227;29;20031;-77
2022/04/30 07:52:33;;;;;;;7.88;3.95;;;16.80;62.50;;;;;;4935245;29;20057;-77
2022/04/30 07:55:02;;;;;;;9.65;4.78;;;16.90;66.40;;;;;;4935067;29;20551;-77
2022/04/30 07:57:28;;;;;;;6.18;4.60;;;17.00;63.00;;;;;;4934606;29;20051;-77
2022/04/30 07:59:54;;;;;;;6.10;4.65;;;17.00;63.60;;;;;;4937823;29;20606;-78
2022/04/30 08:02:19;;;;;;;7.57;4.28;;;17.00;63.10;;;;;;4938817;29;20038;-78
2022/04/30 08:04:45;;;;;;;6.55;4.47;;;17.00;62.10;;;;;;4938499;29;20027;-78
2022/04/30 08:07:11;;;;;;;6.85;4.43;;;17.00;62.10;;;;;;4921612;29;20023;-78
2022/04/30 08:09:37;;;;;;;6.95;4.03;;;17.10;61.00;;;;;;4938476;29;20460;-78
2022/04/30 08:12:03;;;;;;;8.05;4.72;;;17.20;62.90;;;;;;4938721;29;20031;-77
2022/04/30 08:14:29;;;;;;;8.02;4.15;;;17.20;63.00;;;;;;4938677;29;20042;-78
2022/04/30 08:16:54;;;;;;;7.13;4.45;;;17.40;63.10;;;;;;4938388;29;20030;-79
2022/04/30 08:19:20;;;;;;;8.98;4.55;;;17.40;62.00;;;;;;4921479;29;20470;-79
2022/04/30 08:21:48;;;;;;;6.15;4.70;;;17.40;63.20;;;;;;4921648;29;20106;-80
2022/04/30 08:24:14;;;;;;;7.15;5.18;;;17.50;63.30;;;;;;4938521;29;20059;-80
2022/04/30 08:26:40;;;;;;;6.90;4.75;;;17.60;62.80;;;;;;4938347;29;20077;-79
2022/04/30 08:29:06;;;;;;;11.18;4.28;;;17.90;62.10;;;;;;4938287;29;20067;-79
2022/04/30 08:31:32;;;;;;;6.30;4.80;;;18.00;76.20;;;;;;4937912;29;20472;-79
2022/04/30 08:33:58;;;;;;;6.03;4.45;;;18.10;71.20;;;;;;4938469;29;20024;-78
2022/04/30 08:36:24;;;;;;;8.77;4.57;;;18.10;72.30;;;;;;4938717;29;20028;-79
2022/04/30 08:38:49;;;;;;;6.35;4.50;;;18.30;75.50;;;;;;4938282;29;20027;-78
2022/04/30 08:41:16;;;;;;;7.13;4.65;;;18.30;75.10;;;;;;4938301;29;20151;-77
2022/04/30 08:43:47;;;;;;;5.97;4.30;;;18.40;74.70;;;;;;4938298;29;20170;-79
2022/04/30 08:46:13;;;;;;;8.20;4.65;;;18.40;73.40;;;;;;4938086;29;20019;-81
2022/04/30 08:48:39;;;;;;;10.32;4.38;;;18.40;70.40;;;;;;4938148;29;20046;-75
2022/04/30 08:51:05;;;;;;;6.75;4.00;;;18.40;68.90;;;;;;4938220;29;20024;-74
2022/04/30 08:53:31;;;;;;;7.63;4.20;;;18.30;69.80;;;;;;4938164;29;20039;-79
2022/04/30 08:55:56;;;;;;;6.82;4.30;;;18.30;72.90;;;;;;4937889;29;20020;-78
2022/04/30 08:58:22;;;;;;;6.90;4.70;;;18.10;71.20;;;;;;4937841;29;20051;-74
2022/04/30 09:00:48;;;;;;;5.88;4.43;;;18.10;69.70;;;;;;4937943;29;20024;-77
2022/04/30 09:03:19;;;;;;;7.90;4.30;;;18.20;71.70;;;;;;4937763;29;20035;-75
2022/04/30 09:05:45;;;;;;;5.10;4.28;;;18.40;69.80;;;;;;4937549;29;20472;-75
2022/04/30 09:08:11;;;;;;;8.27;4.65;;;18.50;68.30;;;;;;4937656;29;20042;-77
2022/04/30 09:10:41;;;;;;;7.53;4.38;;;18.60;66.60;;;;;;4937366;29;20024;-75
2022/04/30 09:13:10;;;;;;;5.05;3.50;;;18.50;63.60;;;;;;4937110;29;20053;-74
2022/04/30 09:15:38;;;;;;;15.90;6.55;;;18.80;74.50;;;;;;4937463;29;20027;-74
2022/04/30 09:18:05;;;;;;;5.07;3.70;;;18.80;60.90;;;;;;4937345;29;20475;-76
2022/04/30 09:20:40;;;;;;;5.55;3.88;;;18.90;59.90;;;;;;4936896;29;20024;-78
2022/04/30 09:23:06;;;;;;;8.45;3.67;;;18.80;56.60;;;;;;4937248;29;20032;-74
2022/04/30 09:25:31;;;;;;;5.90;4.18;;;18.60;57.10;;;;;;4937252;29;20368;-73
2022/04/30 09:27:57;;;;;;;5.40;3.55;;;18.70;57.90;;;;;;4937015;29;20101;-74
2022/04/30 09:30:32;;;;;;;5.57;3.70;;;18.70;57.40;;;;;;4936507;29;20038;-74
2022/04/30 09:33:03;;;;;;;8.17;4.23;;;18.80;56.70;;;;;;4936976;29;20023;-74
2022/04/30 09:38:15;;;;;;;7.25;3.92;;;19.00;58.90;;;;;;4936863;29;20098;-74
2022/04/30 09:40:50;;;;;;;6.13;3.60;;;19.00;68.50;;;;;;4936973;29;20028;-74
2022/04/30 09:43:16;;;;;;;6.80;3.42;;;19.10;66.10;;;;;;4936882;29;20032;-74
2022/04/30 09:45:42;;;;;;;5.35;2.90;;;19.20;68.30;;;;;;4936944;29;20031;-73
2022/04/30 09:53:57;;;;;;;4.05;3.40;;;19.30;62.80;;;;;;4936741;29;20152;-74
2022/04/30 09:56:37;;;;;;;7.15;3.80;;;19.30;66.80;;;;;;4936560;29;20079;-74
2022/04/30 09:59:11;;;;;;;5.18;3.78;;;19.40;62.30;;;;;;4936769;29;20095;-77
2022/04/30 10:01:39;;;;;;;4.95;3.40;;;19.40;60.80;;;;;;4936630;29;20059;-74
2022/04/30 10:04:15;;;;;;;5.15;3.28;;;19.30;55.50;;;;;;4936207;29;20023;-74
2022/04/30 10:06:50;;;;;;;6.30;3.47;;;19.30;54.40;;;;;;4936414;29;20404;-76
2022/04/30 10:09:22;;;;;;;5.93;3.45;;;19.20;53.50;;;;;;4936340;29;20044;-74
2022/04/30 10:12:04;;;;;;;5.20;2.60;;;19.30;54.40;;;;;;4936279;29;20092;-75
2022/04/30 10:14:55;;;;;;;8.77;2.83;;;19.30;54.10;;;;;;4936361;29;20035;-74
2022/04/30 10:17:24;;;;;;;3.22;2.90;;;19.50;56.30;;;;;;4919177;29;20128;-76
2022/04/30 10:19:58;;;;;;;4.18;2.92;;;19.50;58.60;;;;;;4919127;29;20035;-76
2022/04/30 10:22:24;;;;;;;4.03;2.95;;;19.50;65.90;;;;;;4935597;29;20468;-76
2022/04/30 10:24:53;;;;;;;4.38;2.80;;;19.60;59.60;;;;;;4936378;29;20034;-76
2022/04/30 10:27:19;;;;;;;4.43;3.00;;;19.60;64.10;;;;;;4936034;29;20024;-76
2022/04/30 10:29:55;;;;;;;4.78;3.22;;;19.60;65.30;;;;;;4935801;29;20036;-75
2022/04/30 10:32:41;;;;;;;6.22;2.95;;;19.60;56.40;;;;;;4936125;29;20035;-75
2022/04/30 10:35:07;;;;;;;4.97;3.10;;;19.50;59.80;;;;;;4935876;29;20107;-75
2022/04/30 10:37:35;;;;;;;3.63;3.03;;;19.60;57.30;;;;;;4918812;29;20095;-76
2022/04/30 10:40:04;;;;;;;5.93;2.80;;;19.70;53.00;;;;;;4935964;29;20374;-76
2022/04/30 10:42:32;;;;;;;5.70;2.53;;;19.70;51.80;;;;;;4936150;29;20039;-76
2022/04/30 10:44:58;;;;;;;3.40;2.30;;;19.50;52.00;;;;;;4918701;29;20034;-76
2022/04/30 10:47:25;;;;;;;3.15;2.17;;;19.30;53.10;;;;;;4935738;29;20028;-76
2022/04/30 10:49:51;;;;;;;5.25;2.83;;;19.30;67.40;;;;;;4918355;29;20061;-76
2022/04/30 10:52:22;;;;;;;4.18;2.65;;;19.30;67.10;;;;;;4918291;29;20020;-75
2022/04/30 10:54:49;;;;;;;2.80;2.58;;;19.30;64.60;;;;;;4935716;29;20084;-76
2022/04/30 10:57:15;;;;;;;6.68;2.80;;;19.40;64.50;;;;;;4918314;29;20051;-75
2022/04/30 10:59:40;;;;;;;4.75;2.42;;;19.30;63.60;;;;;;4935586;29;20464;-75
2022/04/30 11:02:07;;;;;;;3.95;2.45;;;19.30;64.20;;;;;;4935554;29;20027;-75
2022/04/30 11:04:34;;;;;;;3.05;2.50;;;19.50;63.90;;;;;;4935445;29;20048;-75
2022/04/30 11:07:02;;;;;;;4.20;2.50;;;19.60;67.70;;;;;;4935285;29;20023;-75
2022/04/30 11:09:28;;;;;;;4.25;2.45;;;19.80;72.00;;;;;;4935428;29;20091;-74
2022/04/30 11:11:54;;;;;;;2.67;2.38;;;19.90;65.70;;;;;;4935574;29;20035;-76
2022/04/30 11:14:20;;;;;;;4.20;2.60;;;19.90;67.20;;;;;;4935424;29;20110;-75
2022/04/30 11:16:49;;;;;;;3.97;2.75;;;20.00;69.20;;;;;;4935266;29;20437;-75
2022/04/30 11:19:18;;;;;;;3.00;2.40;;;20.00;66.80;;;;;;4935216;29;20032;-76
2022/04/30 11:21:49;;;;;;;2.90;2.53;;;20.00;60.50;;;;;;4935622;29;20143;-76
2022/04/30 11:24:22;;;;;;;3.00;2.30;;;20.10;59.10;;;;;;4935684;29;20062;-76
2022/04/30 11:26:47;;;;;;;3.42;2.97;;;20.00;57.90;;;;;;4935336;29;20471;-76
2022/04/30 11:29:14;;;;;;;2.63;2.17;;;19.70;56.60;;;;;;4918049;29;20106;-77
2022/04/30 11:31:43;;;;;;;6.10;2.80;;;19.50;57.10;;;;;;4935140;29;20063;-76
2022/04/30 11:34:13;;;;;;;3.70;2.30;;;19.60;53.40;;;;;;4935324;29;20024;-76
2022/04/30 11:36:47;;;;;;;3.38;2.22;;;19.70;52.60;;;;;;4918182;29;20024;-76
2022/04/30 11:39:15;;;;;;;3.28;2.90;;;19.80;52.50;;;;;;4918223;29;20036;-78
2022/04/30 11:41:45;;;;;;;2.38;2.17;;;20.10;65.00;;;;;;4918146;29;20516;-78
2022/04/30 11:44:12;;;;;;;5.78;2.30;;;20.10;58.60;;;;;;4918166;29;20024;-76
2022/04/30 11:46:39;;;;;;;3.53;2.10;;;20.20;54.20;;;;;;4935049;29;20037;-77
2022/04/30 11:49:10;;;;;;;2.67;2.47;;;20.30;57.40;;;;;;4918047;29;20039;-77
2022/04/30 11:51:36;;;;;;;2.65;2.40;;;20.40;54.30;;;;;;4935313;29;20035;-76
2022/04/30 11:54:03;;;;;;;3.55;1.90;;;20.70;71.90;;;;;;4935100;29;20110;-76
2022/04/30 11:56:31;;;;;;;3.15;2.10;;;20.60;67.50;;;;;;4934849;29;20102;-77
2022/04/30 11:58:57;;;;;;;3.95;2.30;;;20.60;68.70;;;;;;4935111;29;20170;-76
2022/04/30 12:01:25;;;;;;;3.13;1.95;;;20.60;69.30;;;;;;4935045;29;20103;-80
2022/04/30 12:03:56;;;;;;;2.90;2.50;;;20.60;69.60;;;;;;4918209;29;20032;-79
2022/04/30 12:06:23;;;;;;;3.63;1.98;;;20.60;53.10;;;;;;4934835;29;20071;-76
2022/04/30 12:08:49;;;;;;;5.15;2.25;;;20.60;52.70;;;;;;4934833;29;20054;-79
2022/04/30 12:11:14;;;;;;;4.95;2.88;;;20.60;51.50;;;;;;4935007;29;20028;-77
2022/04/30 12:13:40;;;;;;;2.90;2.20;;;20.60;50.70;;;;;;4935125;29;20472;-78
2022/04/30 12:16:07;;;;;;;3.88;2.40;;;20.60;52.10;;;;;;4934863;29;20416;-79
2022/04/30 12:27:03;;;;;;;2.95;2.10;;;20.80;51.60;;;;;;4934643;29;20042;-78
2022/04/30 12:29:30;;;;;;;3.42;2.33;;;20.90;51.00;;;;;;4934490;29;20488;-79
2022/04/30 12:31:56;;;;;;;3.33;2.45;;;20.70;51.70;;;;;;4917656;29;20039;-80
2022/04/30 12:34:27;;;;;;;4.80;2.33;;;20.50;52.70;;;;;;4934619;29;20020;-78
2022/04/30 12:36:58;;;;;;;3.65;2.20;;;20.30;57.10;;;;;;4934649;29;20391;-78
2022/04/30 12:39:24;;;;;;;3.20;2.10;;;20.10;64.30;;;;;;4934964;29;20027;-78
2022/04/30 12:41:54;;;;;;;2.80;2.03;;;20.00;51.20;;;;;;4934724;29;20036;-77
2022/04/30 12:44:21;;;;;;;3.58;2.33;;;20.00;51.40;;;;;;4918090;29;20039;-77
2022/04/30 12:46:48;;;;;;;3.17;1.85;;;20.20;51.20;;;;;;4938034;29;20416;-75
2022/04/30 12:49:14;;;;;;;3.83;1.88;;;20.40;55.40;;;;;;4920771;29;20035;-79
2022/04/30 12:51:41;;;;;;;6.43;2.47;;;20.50;64.70;;;;;;4938112;29;20020;-77
2022/04/30 12:54:10;;;;;;;4.55;2.40;;;20.30;64.00;;;;;;4937911;29;20102;-78
2022/04/30 12:56:36;;;;;;;3.63;1.73;;;20.30;63.00;;;;;;4937608;29;20062;-77
2022/04/30 12:59:02;;;;;;;5.55;2.00;;;20.30;63.50;;;;;;4920803;29;20063;-77
2022/04/30 13:01:28;;;;;;;4.65;1.77;;;20.30;64.00;;;;;;4920732;29;20492;-77
2022/04/30 13:03:57;;;;;;;2.42;2.20;;;20.40;66.00;;;;;;4937778;29;20826;-76
2022/04/30 13:06:23;;;;;;;3.90;1.92;;;20.70;66.00;;;;;;4920548;29;20475;-77
2022/04/30 13:14:18;;;;;;;2.03;1.77;;;21.00;50.40;;;;;;4907560;29;20385;-77
2022/04/30 13:16:44;;;;;;;2.20;1.85;;;21.10;59.70;;;;;;4937380;29;20063;-77
2022/04/30 13:19:10;;;;;;;2.05;1.85;;;21.20;56.10;;;;;;4937640;29;20024;-77
2022/04/30 13:21:36;;;;;;;3.33;1.80;;;21.20;54.70;;;;;;4937445;29;20083;-77
2022/04/30 13:24:03;;;;;;;2.65;1.80;;;21.00;54.20;;;;;;4937333;29;20020;-78
2022/04/30 13:26:28;;;;;;;3.08;1.60;;;21.10;54.70;;;;;;4937180;29;20110;-77
2022/04/30 13:28:54;;;;;;;2.72;1.60;;;21.20;55.30;;;;;;4920218;29;20122;-77
2022/04/30 13:31:20;;;;;;;6.00;2.10;;;21.40;49.30;;;;;;4937307;29;20431;-77
2022/04/30 13:33:46;;;;;;;3.33;1.45;;;21.40;51.00;;;;;;4937168;29;20031;-77
2022/04/30 13:36:11;;;;;;;2.15;2.05;;;21.30;53.00;;;;;;4937186;29;20055;-77
2022/04/30 13:38:38;;;;;;;3.20;1.60;;;21.00;47.20;;;;;;4937159;29;20155;-77
2022/04/30 13:41:06;;;;;;;2.83;1.55;;;20.80;48.90;;;;;;4920024;29;20082;-78
2022/04/30 13:43:32;;;;;;;3.42;1.75;;;20.90;46.90;;;;;;4919960;29;20031;-78